Share

New Delhi Safdarjung, India

New Delhi - GK2 (IDELHINE8) Elev 810 ft | 28.53 °N, 77.24 °E | Change Station

Current weather conditions updated 5 seconds ago

Haze
Haze
82.0 °F
Feels Like 83 °F
N
0.0
Wind Variable Wind from North
Gusts 0.0 mph
Sunrise 5:51 AM
Sunset 6:49 PM
Moon Waning Gibbous

Tomorrow is forecast to be Warmer than today.

Pressure 29.86 in
Visibility 1.9 miles
Clouds Scattered Clouds 10000 ft
Heat Index 83 °F
Dew Point 61 °F
Humidity 49%
Rainfall 0.00 in
Snow Depth Not available.
UV 0.0 out of 16
Pollen Not available.
Air Quality Not available.
Flu Activity Not available.
METAR VIDP 201530Z 03003KT 3000 HZ SCT100 29/09 Q1011 NOSIG

More Conditions Fewer Conditions

Pressure 29.86 in
Visibility 1.9 miles
Clouds Scattered Clouds 10000 ft
Heat Index 83 °F
Dew Point 61 °F
Humidity 49%
Rainfall 0.00 in
Snow Depth Not available.
UV 0.0 out of 16
Pollen Not available.
Air Quality Not available.
Flu Activity Not available.
METAR VIDP 201530Z 03003KT 3000 HZ SCT100 29/09 Q1011 NOSIG

More Conditions Fewer Conditions

10-Day Weather Forecast

Almanac

Astronomy

Apr. 20, 2014 Rise Set
Actual Time 5:51 AM IST 6:49 PM IST
Civil Twilight 5:26 AM IST 7:14 PM IST
Nautical Twilight 4:57 AM IST 7:42 PM IST
Astronomical Twilight 4:28 AM IST 8:12 PM IST
Moon 11:49 PM IST 9:52 AM IST
Length of Visible Light 13h 47m
Length of Day
12h 58m
Tomorrow will be 1m 35s longer.
Waning Gibbous, 69% of the Moon is Illuminated
Today
Waning Gibbous
Apr 22
Last Quarter
Apr 29
New
May 6
First Quarter
May 14
Full

Today's Extremes

Country Highs Country Lows

Community

  • Easter Sunrise
    Easter Sunrise
  • Easter Eve - The Promise - Lake Palestine, TX
    Easter Eve - The Promise - Lake Palestine, TX
  • Happy Easter
    Happy Easter
  • EARLY FOGGY MORNING
    EARLY FOGGY MORNING
  • Easter Greetings
    Easter Greetings

WunderPhotos

Upload Photos

1,703,259 photos uploaded!

WunderBlogs® & News

Nearby

Snow Depth

Not available.

Coastal Water Temperatures

Place Temperature
No Stations Reporting

Earthquake Activity

City Distance Mag. Time & Date
No recent earthquake activity has been reported nearby.
Minimum magnitude displayed is 2.5.

Nearby Weather Stations

Station Location Temp. Heat Index Dew Point Humidity Wind Precip. Elev Updated Type
New Delhi - GK2, New Delhi 82.0 °F 83 °F 61 °F 49% North  at  0.0 mph 0.00 in / hr 810 ft 9:25 PM IST Rapid Fire

Show More Stations Show Fewer Stations

What do you think?

We're not finished. Please let us know what you like, what you don't like, and what you are still missing.